Terminal Aerodrome Forecast
Issued by NWS

Home | Current Version | Previous Version | Text Only | Print | Product List | Glossary On
Versions: 1 2 3 4 5 6 7 8 9 10 11 12 13
000
FTUS46 KSTO 252320
TAFRDD
TAF
KRDD 252320Z 2600/2624 17011KT P6SM BKN250
     FM260300 18009KT P6SM VCSH OVC100
     FM260600 19008KT P6SM -SHRA OVC025
     FM261600 35008KT P6SM BKN200
     FM261800 01013G24KT P6SM FEW250=

USA.gov is the U.S. government's official web portal to all federal, state and local government web resources and services.